Time;durP1;ratioP1;P1;durP2;ratioP2;P2;SDS_P1;SDS_P2;PMS_P1;PMS_P2;Temp;Humidity;BMP_temperature;BMP_pressure;BME280_temperature;BME280_humidity;BME280_pressure;Samples;Min_cycle;Max_cycle;Signal;HPM_P1;HPM_P2
2021/01/25 00:02:13;;;;;;;114.10;67.32;;;;;;;2.86;76.28;92632.87;1730797;82;21071;-59
2021/01/25 00:04:42;;;;;;;130.57;73.62;;;;;;;2.93;76.22;92624.42;1725410;83;21126;-59
2021/01/25 00:07:12;;;;;;;118.95;69.35;;;;;;;3.08;76.20;92623.38;1755056;81;21151;-58
2021/01/25 00:09:41;;;;;;;125.97;71.97;;;;;;;3.19;75.79;92629.73;1730801;83;21118;-58
2021/01/25 00:12:10;;;;;;;126.53;69.85;;;;;;;3.24;75.80;92630.52;1730776;83;21448;-59
2021/01/25 00:14:39;;;;;;;130.78;72.30;;;;;;;3.28;75.32;92644.08;1760899;81;21171;-58
2021/01/25 00:17:07;;;;;;;123.47;68.17;;;;;;;3.22;75.39;92641.08;1730784;83;21067;-58
2021/01/25 00:19:37;;;;;;;124.53;65.12;;;;;;;3.22;75.44;92641.08;1730859;82;21087;-59
2021/01/25 00:22:06;;;;;;;126.87;68.95;;;;;;;3.23;75.14;92639.25;1730781;82;21087;-59
2021/01/25 00:24:36;;;;;;;130.03;73.42;;;;;;;3.22;75.31;92632.93;1725309;83;21535;-59
2021/01/25 00:27:05;;;;;;;123.40;70.05;;;;;;;3.28;75.38;92629.75;1755044;81;21063;-58
2021/01/25 00:29:33;;;;;;;127.75;70.42;;;;;;;3.33;75.10;92630.50;1755211;81;21068;-57
2021/01/25 00:32:02;;;;;;;123.22;69.07;;;;;;;3.26;74.87;92622.66;1755398;81;21138;-59
2021/01/25 00:34:30;;;;;;;117.60;67.03;;;;;;;3.21;75.08;92612.41;1730724;82;21164;-57
2021/01/25 00:36:58;;;;;;;112.42;60.00;;;;;;;3.20;75.16;92610.28;1730829;83;21576;-57
2021/01/25 00:39:27;;;;;;;101.78;56.70;;;;;;;3.28;75.45;92612.84;1760959;81;21083;-58
2021/01/25 00:41:55;;;;;;;88.12;53.83;;;;;;;3.44;75.58;92602.29;1730625;81;21099;-58
2021/01/25 00:44:24;;;;;;;106.47;60.10;;;;;;;3.54;74.92;92595.77;1730800;83;22248;-59
2021/01/25 00:46:52;;;;;;;107.35;60.40;;;;;;;3.48;74.70;92589.30;1730790;83;21105;-58
2021/01/25 00:49:21;;;;;;;94.52;57.10;;;;;;;3.43;74.56;92591.27;1725004;83;21374;-58
2021/01/25 00:51:49;;;;;;;103.58;62.58;;;;;;;3.36;74.85;92588.25;1760933;81;21147;-59
2021/01/25 00:54:19;;;;;;;101.70;64.80;;;;;;;3.42;74.87;92585.06;1730765;83;21150;-58
2021/01/25 00:56:49;;;;;;;90.22;55.60;;;;;;;3.49;74.90;92569.83;1730702;83;21090;-58
2021/01/25 00:59:17;;;;;;;104.92;62.95;;;;;;;3.54;74.64;92567.23;1730884;82;21508;-58
2021/01/25 01:01:45;;;;;;;119.80;67.05;;;;;;;3.50;74.45;92573.44;1725078;83;22155;-60
2021/01/25 01:04:14;;;;;;;122.98;69.10;;;;;;;3.53;74.76;92567.09;1760930;81;21080;-59
2021/01/25 01:06:44;;;;;;;117.10;64.00;;;;;;;3.54;74.12;92557.72;1730725;82;21088;-59
2021/01/25 01:09:13;;;;;;;112.85;66.50;;;;;;;3.45;74.08;92560.31;1730733;82;21092;-58
2021/01/25 01:11:41;;;;;;;131.80;74.53;;;;;;;3.39;74.18;92558.06;1730762;83;21167;-59
2021/01/25 01:14:10;;;;;;;141.60;76.60;;;;;;;3.37;74.48;92538.72;1724924;83;22375;-58
2021/01/25 01:16:38;;;;;;;132.20;73.83;;;;;;;3.37;74.30;92543.56;1760872;80;21119;-57
2021/01/25 01:19:06;;;;;;;129.60;75.30;;;;;;;3.41;74.39;92528.48;1730752;83;21060;-58
2021/01/25 01:21:35;;;;;;;126.87;69.50;;;;;;;3.45;74.08;92527.70;1730749;82;21076;-59
2021/01/25 01:24:10;;;;;;;120.35;68.87;;;;;;;3.45;74.03;92530.42;1730766;82;21079;-58
2021/01/25 01:26:38;;;;;;;124.62;71.02;;;;;;;3.43;73.69;92531.49;1724979;83;21206;-59
2021/01/25 01:29:06;;;;;;;118.62;68.50;;;;;;;3.33;73.70;92521.83;1758211;81;21187;-59
2021/01/25 01:31:34;;;;;;;116.25;68.47;;;;;;;3.28;74.24;92514.30;1758263;81;21067;-60
2021/01/25 01:34:03;;;;;;;109.22;67.22;;;;;;;3.32;74.13;92516.25;1758262;81;21067;-60
2021/01/25 01:36:32;;;;;;;115.65;67.03;;;;;;;3.29;73.98;92517.94;1758219;81;21166;-60
2021/01/25 01:39:00;;;;;;;112.68;67.45;;;;;;;3.26;74.11;92505.23;1758241;81;21527;-59
2021/01/25 01:41:34;;;;;;;126.95;73.50;;;;;;;3.27;74.03;92496.49;1764051;79;21226;-60
2021/01/25 01:44:05;;;;;;;108.25;63.80;;;;;;;3.22;74.11;92482.17;1744485;81;21574;-58
2021/01/25 01:46:34;;;;;;;111.85;66.45;;;;;;;3.20;74.06;92479.16;1815494;78;21061;-59
2021/01/25 01:49:02;;;;;;;118.17;67.90;;;;;;;3.09;74.19;92486.39;1815596;79;21536;-60
2021/01/25 01:51:30;;;;;;;119.97;69.75;;;;;;;3.05;74.52;92485.06;1769893;81;21280;-61
2021/01/25 01:53:59;;;;;;;101.72;61.73;;;;;;;3.07;74.76;92489.42;1815630;79;21166;-58
2021/01/25 01:56:27;;;;;;;112.17;63.30;;;;;;;3.15;74.64;92498.77;1815615;79;21052;-60
2021/01/25 01:58:55;;;;;;;98.92;59.08;;;;;;;3.10;74.46;92479.01;1770061;81;22283;-60
2021/01/25 02:01:24;;;;;;;100.55;57.93;;;;;;;3.05;74.60;92457.28;1815676;79;21080;-59
2021/01/25 02:03:52;;;;;;;101.05;59.50;;;;;;;3.10;74.89;92464.07;1815729;79;21381;-58
2021/01/25 02:06:20;;;;;;;102.25;60.58;;;;;;;3.23;75.05;92455.89;1770042;81;21138;-58
2021/01/25 02:08:49;;;;;;;117.80;71.07;;;;;;;3.35;74.59;92433.83;1815746;79;21101;-58
2021/01/25 02:11:18;;;;;;;130.50;73.78;;;;;;;3.37;74.33;92434.13;1815719;79;21623;-58
2021/01/25 02:13:47;;;;;;;125.18;71.33;;;;;;;3.32;74.33;92425.23;1815646;79;21051;-59
2021/01/25 02:16:16;;;;;;;132.37;77.70;;;;;;;3.22;74.28;92416.98;1770104;81;22355;-58
2021/01/25 02:18:44;;;;;;;133.43;75.62;;;;;;;3.14;74.33;92421.21;1815525;79;21091;-58
2021/01/25 02:21:13;;;;;;;136.90;80.92;;;;;;;3.14;74.63;92425.28;1815690;79;21064;-58
2021/01/25 02:24:11;;;;;;;132.57;77.55;;;;;;;3.19;74.50;92419.23;1770256;81;21154;-59
2021/01/25 02:26:59;;;;;;;147.47;82.22;;;;;;;3.19;74.38;92411.08;1815650;79;21091;-59
2021/01/25 02:29:28;;;;;;;156.50;84.67;;;;;;;3.17;74.62;92407.48;1815647;79;21361;-58
2021/01/25 02:31:56;;;;;;;143.52;80.17;;;;;;;3.24;74.74;92391.47;1815561;79;21071;-59
2021/01/25 02:34:25;;;;;;;151.07;83.52;;;;;;;3.31;74.39;92385.70;1815695;79;21036;-58
2021/01/25 02:36:53;;;;;;;130.67;75.57;;;;;;;3.35;74.11;92390.36;1770005;81;21083;-59
2021/01/25 02:39:22;;;;;;;133.05;76.05;;;;;;;3.26;74.00;92391.14;1815730;79;21547;-58
2021/01/25 02:41:50;;;;;;;129.55;78.95;;;;;;;3.18;74.10;92394.64;1768881;81;21204;-58
2021/01/25 02:44:20;;;;;;;133.22;77.80;;;;;;;3.10;74.21;92396.18;1806394;79;21163;-59
2021/01/25 02:46:48;;;;;;;129.45;76.42;;;;;;;3.10;74.53;92401.02;1761668;81;21185;-58
2021/01/25 02:49:17;;;;;;;127.05;73.90;;;;;;;3.13;74.42;92389.83;1778010;79;21051;-58
2021/01/25 02:51:45;;;;;;;135.65;79.27;;;;;;;3.15;74.34;92389.53;1806512;79;21485;-58
2021/01/25 02:54:13;;;;;;;123.07;71.42;;;;;;;3.14;74.59;92385.91;1806451;79;21272;-59
2021/01/25 02:56:42;;;;;;;115.85;70.35;;;;;;;3.21;74.68;92363.25;1806358;79;21115;-59
2021/01/25 02:59:10;;;;;;;181.65;111.97;;;;;;;3.28;74.10;92373.04;1806553;79;21532;-59
2021/01/25 03:01:38;;;;;;;160.80;97.37;;;;;;;3.10;74.11;92373.09;1806465;79;21160;-58
2021/01/25 03:04:07;;;;;;;148.10;88.95;;;;;;;2.90;74.50;92368.16;1761733;81;21476;-58
2021/01/25 03:06:35;;;;;;;138.57;82.02;;;;;;;2.84;75.04;92375.42;1806372;79;21447;-58
2021/01/25 03:09:05;;;;;;;143.97;80.67;;;;;;;2.83;75.29;92379.34;1806383;79;21067;-59
2021/01/25 03:11:33;;;;;;;153.12;95.17;;;;;;;2.92;75.61;92367.71;1806460;79;21060;-58
2021/01/25 03:14:09;;;;;;;148.70;93.95;;;;;;;3.09;75.51;92371.59;1761553;81;21299;-59
2021/01/25 03:16:37;;;;;;;152.60;90.05;;;;;;;3.17;75.02;92370.05;1806476;79;21067;-58
2021/01/25 03:19:05;;;;;;;149.82;86.85;;;;;;;3.18;75.18;92367.48;1806395;79;21203;-58
2021/01/25 03:21:34;;;;;;;140.82;80.47;;;;;;;3.24;75.05;92365.66;1806399;79;21068;-59
2021/01/25 03:24:03;;;;;;;127.55;76.37;;;;;;;3.31;74.98;92354.46;1761685;81;21122;-59
2021/01/25 03:26:32;;;;;;;147.78;83.92;;;;;;;3.31;74.59;92354.46;1806406;79;21166;-58
2021/01/25 03:29:00;;;;;;;135.45;82.20;;;;;;;3.24;74.51;92350.73;1806457;79;21167;-58
2021/01/25 03:31:29;;;;;;;118.65;72.65;;;;;;;3.16;74.63;92340.80;1761573;81;21215;-59
2021/01/25 03:33:57;;;;;;;121.25;70.45;;;;;;;3.13;74.90;92334.92;1806220;79;21144;-59
2021/01/25 03:36:25;;;;;;;128.65;73.35;;;;;;;3.12;74.72;92339.44;1761553;81;21059;-59
2021/01/25 03:38:54;;;;;;;120.05;68.50;;;;;;;3.04;74.82;92342.35;1806449;79;21090;-59
2021/01/25 03:41:22;;;;;;;121.60;69.50;;;;;;;3.00;75.13;92339.02;1806555;79;21539;-58
2021/01/25 03:43:51;;;;;;;118.82;71.28;;;;;;;3.10;75.25;92354.09;1808830;79;21207;-59
2021/01/25 03:46:19;;;;;;;124.70;73.45;;;;;;;3.21;75.23;92353.00;1809457;79;21136;-58
2021/01/25 03:48:47;;;;;;;128.95;74.55;;;;;;;3.30;74.88;92339.38;1809620;79;21060;-58
2021/01/25 03:51:18;;;;;;;145.92;81.00;;;;;;;3.34;74.83;92330.45;1809567;79;21068;-58
2021/01/25 03:53:49;;;;;;;132.52;74.95;;;;;;;3.42;74.75;92321.50;1730882;83;21475;-58
2021/01/25 03:56:17;;;;;;;132.82;77.58;;;;;;;3.49;74.46;92316.48;1730770;83;21213;-57
2021/01/25 03:58:45;;;;;;;139.35;80.70;;;;;;;3.54;74.21;92317.83;1730702;83;21084;-59
2021/01/25 04:01:13;;;;;;;147.50;85.28;;;;;;;3.52;73.85;92308.77;1730785;82;21477;-59
2021/01/25 04:03:42;;;;;;;128.53;80.90;;;;;;;3.48;73.89;92294.60;1725061;83;21107;-60
2021/01/25 04:06:10;;;;;;;164.22;97.10;;;;;;;3.48;73.88;92299.89;1758429;81;21523;-58
2021/01/25 04:08:39;;;;;;;177.45;98.97;;;;;;;3.43;73.89;92303.25;1758365;81;21211;-59
2021/01/25 04:11:07;;;;;;;159.78;89.67;;;;;;;3.44;74.33;92293.27;1758434;81;21084;-58
2021/01/25 04:13:35;;;;;;;138.72;74.42;;;;;;;3.52;74.11;92295.80;1758467;81;21064;-60
2021/01/25 04:16:04;;;;;;;123.95;70.85;;;;;;;3.56;73.84;92291.70;1730845;83;21091;-59
2021/01/25 04:18:33;;;;;;;139.92;81.15;;;;;;;3.59;73.65;92285.34;1731038;83;21559;-60
2021/01/25 04:21:03;;;;;;;160.18;96.05;;;;;;;3.52;73.53;92274.80;1761016;81;21379;-59
2021/01/25 04:23:31;;;;;;;166.45;101.75;;;;;;;3.48;73.74;92270.77;1730730;83;21179;-58
2021/01/25 04:26:01;;;;;;;160.78;93.97;;;;;;;3.45;73.73;92261.42;1730836;83;21171;-58
2021/01/25 04:28:29;;;;;;;143.13;84.65;;;;;;;3.41;73.90;92261.59;1730763;82;21603;-59
2021/01/25 04:30:58;;;;;;;145.62;82.65;;;;;;;3.37;73.95;92262.96;1725083;83;21497;-59
2021/01/25 04:33:26;;;;;;;155.20;85.03;;;;;;;3.33;74.07;92255.59;1758316;81;22028;-58
2021/01/25 04:35:55;;;;;;;120.28;76.70;;;;;;;3.36;74.41;92251.95;1758304;81;21527;-59
2021/01/25 04:38:23;;;;;;;139.65;86.97;;;;;;;3.47;74.16;92248.13;1730792;83;21102;-59
2021/01/25 04:40:52;;;;;;;172.45;102.17;;;;;;;3.45;74.00;92236.34;1730752;83;21091;-58
2021/01/25 04:43:20;;;;;;;160.22;95.20;;;;;;;3.42;73.82;92229.75;1775860;79;21543;-58
2021/01/25 04:45:48;;;;;;;126.10;79.15;;;;;;;3.38;74.06;92220.41;1806386;79;21252;-59
2021/01/25 04:48:17;;;;;;;123.45;78.47;;;;;;;3.39;73.79;92223.89;1806365;79;21048;-59
2021/01/25 04:50:45;;;;;;;122.82;74.15;;;;;;;3.34;73.79;92220.42;1806387;78;21096;-58
2021/01/25 04:53:13;;;;;;;111.28;71.42;;;;;;;3.27;73.82;92208.55;1806387;79;21042;-57
2021/01/25 04:55:41;;;;;;;105.67;65.17;;;;;;;3.20;74.21;92208.91;1777763;79;21564;-58
2021/01/25 04:58:10;;;;;;;119.77;72.42;;;;;;;3.17;74.29;92212.52;1761610;81;22276;-59
2021/01/25 05:00:39;;;;;;;117.37;71.55;;;;;;;3.12;74.45;92209.09;1806412;79;21588;-59
2021/01/25 05:03:08;;;;;;;109.22;69.37;;;;;;;3.14;74.81;92203.95;1761530;81;21075;-58
2021/01/25 05:05:36;;;;;;;115.37;70.25;;;;;;;3.23;74.67;92201.19;1806361;79;21132;-59
2021/01/25 05:08:05;;;;;;;114.50;68.57;;;;;;;3.30;74.67;92195.41;1806360;79;21721;-59
2021/01/25 05:10:33;;;;;;;109.37;67.92;;;;;;;3.44;74.74;92200.88;1806350;79;21248;-59
2021/01/25 05:13:02;;;;;;;126.78;80.40;;;;;;;3.55;74.29;92199.13;1806298;79;21103;-58
2021/01/25 05:15:33;;;;;;;162.92;101.38;;;;;;;3.61;74.10;92189.73;1806242;79;21586;-59
2021/01/25 05:18:03;;;;;;;139.05;86.80;;;;;;;3.60;73.75;92185.52;1806345;79;21092;-58
2021/01/25 05:20:33;;;;;;;106.30;64.22;;;;;;;3.59;73.89;92188.86;1806475;79;21507;-58
2021/01/25 05:23:02;;;;;;;110.65;68.50;;;;;;;3.60;73.51;92178.73;1806307;79;21201;-58
2021/01/25 05:28:16;;;;;;;103.32;63.87;;;;;;;3.46;73.71;92177.34;1890134;75;21849;-58
2021/01/25 05:30:45;;;;;;;121.57;72.32;;;;;;;3.35;73.79;92179.22;1860946;77;21669;-58
2021/01/25 05:33:13;;;;;;;112.88;64.55;;;;;;;3.20;73.96;92180.39;1860979;77;21194;-58
2021/01/25 05:35:43;;;;;;;135.10;78.47;;;;;;;3.03;74.24;92178.66;1860908;77;21635;-59
2021/01/25 05:38:11;;;;;;;145.60;79.40;;;;;;;2.89;74.78;92182.05;1860977;77;21053;-59
2021/01/25 05:40:39;;;;;;;159.95;86.35;;;;;;;2.87;75.07;92179.05;1860979;77;21090;-59
2021/01/25 05:43:12;;;;;;;178.10;93.80;;;;;;;2.89;75.17;92171.81;1861095;77;21575;-59
2021/01/25 05:45:40;;;;;;;175.60;91.97;;;;;;;2.94;75.36;92182.03;1861113;77;21383;-58
2021/01/25 05:48:13;;;;;;;185.40;99.42;;;;;;;3.06;75.75;92179.72;1860886;77;21056;-59
2021/01/25 05:50:43;;;;;;;178.53;95.90;;;;;;;3.25;75.55;92175.05;1860958;77;21018;-59
2021/01/25 05:53:12;;;;;;;171.05;99.03;;;;;;;3.38;74.90;92179.65;1860998;77;21591;-60
2021/01/25 05:55:43;;;;;;;178.85;96.05;;;;;;;3.41;74.71;92169.83;1860999;77;21488;-59
2021/01/25 05:58:12;;;;;;;173.68;96.00;;;;;;;3.49;74.70;92173.09;1860926;77;21357;-60
2021/01/25 06:00:41;;;;;;;162.50;95.25;;;;;;;3.58;74.24;92177.84;1860891;77;21068;-59
2021/01/25 06:03:10;;;;;;;170.95;94.90;;;;;;;3.62;74.02;92176.29;1860981;77;21490;-59
2021/01/25 06:05:41;;;;;;;161.40;92.45;;;;;;;3.64;74.21;92165.11;1860978;77;21068;-59
2021/01/25 06:08:53;;;;;;;152.47;87.92;;;;;;;3.75;74.08;92164.56;1861001;77;21076;-59
2021/01/25 06:11:25;;;;;;;161.40;90.00;;;;;;;3.79;73.60;92160.45;1861015;77;21144;-59
2021/01/25 06:14:07;;;;;;;170.43;93.20;;;;;;;3.77;73.35;92156.09;1862433;76;21125;-61
2021/01/25 06:16:35;;;;;;;227.53;113.00;;;;;;;3.66;73.31;92157.86;1807172;79;21610;-59
2021/01/25 06:19:08;;;;;;;220.80;118.80;;;;;;;3.58;73.50;92161.55;1822699;78;21095;-59
2021/01/25 06:21:40;;;;;;;244.13;128.35;;;;;;;3.60;73.79;92158.34;1793390;79;21055;-60
2021/01/25 06:24:10;;;;;;;255.57;130.80;;;;;;;3.65;73.82;92154.38;1791437;78;21275;-60
2021/01/25 06:26:39;;;;;;;270.45;136.30;;;;;;;3.75;73.63;92150.37;1780429;78;21079;-57
2021/01/25 06:29:08;;;;;;;213.82;113.30;;;;;;;3.78;73.26;92150.03;1822668;78;21139;-61
2021/01/25 06:31:38;;;;;;;218.27;111.60;;;;;;;3.78;73.18;92150.03;1806979;79;21080;-57
2021/01/25 06:34:09;;;;;;;236.92;117.10;;;;;;;3.81;73.20;92155.30;1822808;78;21081;-57
2021/01/25 06:36:40;;;;;;;233.80;121.42;;;;;;;3.87;73.10;92156.14;1797307;79;21200;-58
2021/01/25 06:39:08;;;;;;;220.12;116.60;;;;;;;4.01;73.19;92153.28;1790145;78;21088;-58
2021/01/25 06:41:41;;;;;;;217.72;114.25;;;;;;;4.13;72.78;92145.47;1819666;78;21564;-58
2021/01/25 06:44:11;;;;;;;189.57;109.87;;;;;;;4.15;72.54;92139.71;1819618;78;21052;-58
2021/01/25 06:46:40;;;;;;;181.93;101.38;;;;;;;4.15;72.63;92139.71;1796047;80;21060;-58
2021/01/25 06:49:09;;;;;;;215.85;124.22;;;;;;;4.21;72.44;92139.19;1819348;78;22076;-59
2021/01/25 06:51:43;;;;;;;199.82;111.68;;;;;;;4.26;72.46;92130.35;1793399;80;21149;-58
2021/01/25 06:54:14;;;;;;;215.50;117.95;;;;;;;4.31;72.25;92131.08;1819591;78;21056;-58
2021/01/25 06:56:59;;;;;;;234.62;126.42;;;;;;;4.36;72.25;92118.76;1778274;80;21198;-58
2021/01/25 06:59:32;;;;;;;288.12;157.72;;;;;;;4.41;72.11;92122.20;1819609;78;21052;-57
2021/01/25 07:02:04;;;;;;;275.13;157.30;;;;;;;4.42;72.17;92117.63;1805200;78;22256;-57
2021/01/25 07:04:33;;;;;;;227.10;137.25;;;;;;;4.46;72.25;92116.09;1779382;79;21149;-59
2021/01/25 07:07:03;;;;;;;226.37;133.45;;;;;;;4.54;71.98;92116.59;1753360;80;21084;-58
2021/01/25 07:09:32;;;;;;;209.62;122.15;;;;;;;4.57;71.97;92118.36;1783746;80;21072;-60
2021/01/25 07:12:03;;;;;;;181.35;107.22;;;;;;;4.63;71.81;92117.09;1789062;79;21548;-58
2021/01/25 07:14:32;;;;;;;163.47;97.45;;;;;;;4.70;71.50;92113.96;1816213;79;22050;-62
2021/01/25 07:17:00;;;;;;;170.87;103.22;;;;;;;4.66;71.31;92107.97;1806279;79;21144;-57
2021/01/25 07:19:30;;;;;;;186.40;115.70;;;;;;;4.59;71.47;92102.30;1822234;78;21090;-58
2021/01/25 07:21:59;;;;;;;176.65;108.55;;;;;;;4.58;71.58;92096.72;1798049;79;21187;-57
2021/01/25 07:24:28;;;;;;;235.45;132.55;;;;;;;4.65;71.75;92099.06;1801197;78;21063;-58
2021/01/25 07:26:59;;;;;;;413.25;198.45;;;;;;;4.68;71.63;92106.28;1788877;79;21188;-59
2021/01/25 07:29:28;;;;;;;252.53;142.98;;;;;;;4.60;71.56;92098.98;1787535;80;21094;-57
2021/01/25 07:31:58;;;;;;;301.05;167.28;;;;;;;4.52;71.60;92093.77;1788104;80;21563;-59
2021/01/25 07:37:05;;;;;;;266.85;150.50;;;;;;;4.41;71.90;92094.36;1873640;75;21819;-59
2021/01/25 07:39:34;;;;;;;260.60;145.00;;;;;;;4.28;72.21;92087.10;1789397;78;21050;-57
2021/01/25 07:42:02;;;;;;;286.85;150.15;;;;;;;4.22;72.25;92094.44;1824544;78;21441;-58
2021/01/25 07:44:30;;;;;;;226.85;129.85;;;;;;;4.13;72.62;92084.27;1808562;79;21128;-60
2021/01/25 07:47:05;;;;;;;247.27;140.03;;;;;;;4.13;72.63;92082.31;1808538;79;20970;-62
2021/01/25 07:49:33;;;;;;;233.93;133.35;;;;;;;4.12;72.79;92091.69;1821757;78;21057;-65
2021/01/25 07:52:04;;;;;;;284.73;156.55;;;;;;;4.15;73.02;92085.30;1829313;78;20923;-59
2021/01/25 07:54:32;;;;;;;199.30;118.80;;;;;;;4.28;73.16;92093.91;1841683;77;22061;-59
2021/01/25 07:57:00;;;;;;;197.57;116.20;;;;;;;4.39;72.70;92087.28;1841477;78;20990;-57
2021/01/25 07:59:33;;;;;;;149.45;92.35;;;;;;;4.43;73.00;92089.81;1841501;78;20974;-61
2021/01/25 08:02:06;;;;;;;150.60;86.45;;;;;;;4.50;72.76;92077.94;1821351;78;21049;-59
2021/01/25 08:04:37;;;;;;;151.80;89.62;;;;;;;4.52;72.60;92076.08;1808664;79;21502;-58
2021/01/25 08:07:06;;;;;;;176.97;103.38;;;;;;;4.49;72.56;92066.91;1808541;78;21438;-56
2021/01/25 08:09:38;;;;;;;188.80;114.70;;;;;;;4.48;72.63;92074.94;1835469;76;21083;-62
2021/01/25 08:12:07;;;;;;;189.35;112.97;;;;;;;4.48;72.60;92064.65;1865298;76;21097;-62
2021/01/25 08:14:50;;;;;;;162.65;97.57;;;;;;;4.52;72.85;92070.05;1796765;78;21656;-59
2021/01/25 08:17:25;;;;;;;205.75;125.33;;;;;;;4.67;72.96;92065.31;1776698;80;21608;-59
2021/01/25 08:20:10;;;;;;;245.35;138.45;;;;;;;4.79;72.75;92069.66;1799001;78;22436;-63
2021/01/25 08:22:56;;;;;;;152.75;91.02;;;;;;;4.91;72.46;92059.06;1810214;77;21145;-59
2021/01/25 08:25:27;;;;;;;130.67;77.78;;;;;;;4.98;72.37;92058.64;1805317;79;21176;-58
2021/01/25 08:28:10;;;;;;;171.10;105.52;;;;;;;5.07;71.95;92046.86;1732168;82;21499;-56
2021/01/25 08:30:49;;;;;;;155.45;95.55;;;;;;;5.07;72.10;92050.35;1782916;80;21117;-60
2021/01/25 08:33:33;;;;;;;157.18;102.12;;;;;;;5.06;72.05;92044.77;1784286;78;21415;-60
2021/01/25 08:36:06;;;;;;;176.75;106.32;;;;;;;5.07;71.96;92034.01;1739303;80;21120;-59
2021/01/25 08:38:41;;;;;;;161.15;97.80;;;;;;;5.09;71.98;92046.53;1750112;82;21484;-60
2021/01/25 08:41:32;;;;;;;138.65;84.60;;;;;;;5.16;72.07;92048.10;1725683;82;21184;-59
2021/01/25 08:44:03;;;;;;;139.30;84.70;;;;;;;5.21;72.05;92044.09;1768090;81;21142;-58
2021/01/25 08:46:34;;;;;;;135.63;82.08;;;;;;;5.37;71.73;92051.67;1767633;80;21211;-60
2021/01/25 08:49:24;;;;;;;114.28;72.78;;;;;;;5.38;71.56;92032.76;1767642;80;21507;-63
2021/01/25 08:52:01;;;;;;;138.80;87.25;;;;;;;5.36;71.60;92042.77;1767352;81;21131;-58
2021/01/25 08:54:38;;;;;;;131.45;79.58;;;;;;;5.29;71.76;92034.25;1769103;79;21221;-62
2021/01/25 08:57:23;;;;;;;139.20;85.72;;;;;;;5.41;71.88;92033.16;1768325;79;21071;-60
2021/01/25 08:59:51;;;;;;;109.70;68.00;;;;;;;5.60;71.61;92024.80;1773788;79;21347;-62
2021/01/25 09:02:23;;;;;;;117.97;72.72;;;;;;;5.80;71.38;92039.77;1750173;81;21203;-61
2021/01/25 09:04:52;;;;;;;76.00;47.50;;;;;;;5.89;71.04;92029.44;1765450;80;21157;-59
2021/01/25 09:07:23;;;;;;;66.60;45.20;;;;;;;6.02;70.85;92029.81;1783990;79;21586;-60
2021/01/25 09:09:51;;;;;;;83.97;51.58;;;;;;;6.16;70.43;92039.09;1798170;79;21138;-61
2021/01/25 09:12:20;;;;;;;71.40;42.85;;;;;;;6.26;70.60;92027.52;1796186;79;21380;-60
2021/01/25 09:14:48;;;;;;;62.50;40.23;;;;;;;6.49;70.24;92017.50;1766876;79;21610;-61
2021/01/25 09:17:17;;;;;;;54.83;36.23;;;;;;;6.65;69.34;92014.09;1766917;81;21154;-63
2021/01/25 09:19:46;;;;;;;64.58;41.00;;;;;;;6.70;69.35;92012.03;1766548;79;21213;-60
2021/01/25 09:22:24;;;;;;;67.75;41.73;;;;;;;6.76;69.21;92019.03;1750800;79;21166;-59
2021/01/25 09:24:53;;;;;;;49.67;33.18;;;;;;;6.82;69.23;92013.58;1766010;81;21324;-59
2021/01/25 09:27:21;;;;;;;43.85;29.02;;;;;;;6.86;68.64;92020.94;1766257;81;21566;-62
2021/01/25 09:29:50;;;;;;;33.75;23.10;;;;;;;6.83;69.00;92009.60;1766424;81;21141;-59
2021/01/25 09:32:19;;;;;;;33.28;23.02;;;;;;;6.86;68.63;92003.19;1766578;81;21215;-59
2021/01/25 09:34:49;;;;;;;37.65;26.27;;;;;;;6.87;68.60;91997.84;1766621;80;21604;-62
2021/01/25 09:37:18;;;;;;;32.70;22.05;;;;;;;6.94;68.26;91994.64;1771972;79;21346;-62
2021/01/25 09:39:46;;;;;;;36.90;24.47;;;;;;;6.99;68.15;91989.20;1766591;80;21067;-62
2021/01/25 09:42:16;;;;;;;72.37;32.73;;;;;;;7.12;68.06;91969.02;1766215;81;21173;-60
2021/01/25 09:44:44;;;;;;;42.15;25.62;;;;;;;7.25;67.98;91987.81;1766767;81;21213;-60
2021/01/25 09:47:12;;;;;;;45.23;29.87;;;;;;;7.40;67.62;91987.60;1769201;79;21034;-62
2021/01/25 09:49:43;;;;;;;50.08;31.65;;;;;;;7.53;67.79;91983.78;1781324;79;21223;-59
2021/01/25 09:52:11;;;;;;;52.75;34.92;;;;;;;7.64;67.82;91976.95;1779708;79;21570;-66
2021/01/25 09:54:40;;;;;;;49.10;31.27;;;;;;;7.81;67.55;91978.48;1789798;79;21125;-60
2021/01/25 09:57:09;;;;;;;50.60;33.42;;;;;;;8.04;66.94;91979.98;1791101;79;21185;-61
2021/01/25 09:59:37;;;;;;;45.43;29.80;;;;;;;8.19;66.56;91975.65;1782932;80;21206;-61
2021/01/25 10:02:06;;;;;;;57.98;35.63;;;;;;;8.37;66.01;91975.89;1736221;82;21449;-60
2021/01/25 10:04:36;;;;;;;46.48;28.07;;;;;;;8.50;65.60;91981.62;1748576;80;21082;-61
2021/01/25 10:07:04;;;;;;;56.60;30.35;;;;;;;8.53;64.87;91981.98;1748861;82;21496;-61
2021/01/25 10:09:33;;;;;;;43.95;28.57;;;;;;;8.40;64.79;91965.95;1748258;80;21610;-58
2021/01/25 10:12:01;;;;;;;60.08;36.53;;;;;;;8.32;65.18;91966.31;1745402;80;21506;-60
2021/01/25 10:14:32;;;;;;;52.33;33.02;;;;;;;8.39;65.41;91954.23;1748544;82;21189;-63
2021/01/25 10:17:00;;;;;;;47.80;28.77;;;;;;;8.63;65.77;91947.58;1753361;80;21174;-63
2021/01/25 10:19:29;;;;;;;27.50;15.75;;;;;;;8.95;65.29;91950.10;1746049;80;21204;-62
2021/01/25 10:21:57;;;;;;;42.40;24.98;;;;;;;9.24;63.54;91963.94;1749010;82;21142;-61
2021/01/25 10:24:26;;;;;;;23.47;13.55;;;;;;;9.42;63.01;91953.02;1748957;80;21066;-61
2021/01/25 10:26:54;;;;;;;19.42;12.40;;;;;;;9.56;61.59;91958.78;1748922;82;21187;-61
2021/01/25 10:29:23;;;;;;;12.50;7.33;;;;;;;9.67;60.30;91962.85;1749013;80;21153;-61
2021/01/25 10:31:52;;;;;;;8.78;6.12;;;;;;;9.72;59.63;91959.31;1760649;80;21129;-59
2021/01/25 10:34:20;;;;;;;8.38;6.70;;;;;;;9.82;59.13;91957.12;1748997;82;21176;-60
2021/01/25 10:36:52;;;;;;;9.98;6.53;;;;;;;9.95;58.36;91954.55;1746317;80;21165;-61
2021/01/25 10:39:19;;;;;;;7.22;4.90;;;;;;;10.13;58.14;91956.69;1743090;82;22297;-60
2021/01/25 10:41:47;;;;;;;11.73;6.30;;;;;;;10.28;57.31;91961.19;1742873;82;21621;-61
2021/01/25 10:44:17;;;;;;;4.87;3.55;;;;;;;10.37;56.95;91969.73;1743355;82;21078;-59
2021/01/25 10:46:46;;;;;;;7.03;5.50;;;;;;;10.32;56.21;91982.91;1743107;82;21626;-59
2021/01/25 10:49:14;;;;;;;5.12;3.70;;;;;;;10.14;57.41;91998.01;1742702;82;21177;-58
2021/01/25 10:51:44;;;;;;;8.65;5.75;;;;;;;9.94;59.20;92012.09;1743313;82;21210;-57
2021/01/25 10:54:12;;;;;;;8.05;6.10;;;;;;;9.63;59.21;92025.50;1755407;80;21174;-60
2021/01/25 10:56:41;;;;;;;5.20;4.50;;;;;;;9.26;60.92;92014.19;1762233;80;21130;-61
2021/01/25 10:59:09;;;;;;;5.53;4.72;;;;;;;8.99;60.45;92023.23;1743340;82;21138;-60
2021/01/25 11:01:37;;;;;;;4.53;3.92;;;;;;;8.81;60.42;92026.51;1742895;81;21311;-59
2021/01/25 11:04:07;;;;;;;4.20;3.80;;;;;;;8.72;56.99;92042.47;1743087;80;21453;-60
2021/01/25 11:06:35;;;;;;;7.08;5.83;;;;;;;8.53;56.12;92046.36;1743346;82;21129;-60
2021/01/25 11:09:04;;;;;;;6.55;5.20;;;;;;;8.40;56.02;92048.84;1742722;82;21118;-58
2021/01/25 11:11:34;;;;;;;3.95;3.60;;;;;;;8.26;55.55;92054.58;1742926;82;21150;-59
2021/01/25 11:14:02;;;;;;;5.58;5.00;;;;;;;8.10;55.26;92071.70;1743134;82;21130;-59
2021/01/25 11:16:32;;;;;;;4.40;3.98;;;;;;;7.91;55.73;92079.61;1743191;82;21953;-60
2021/01/25 11:19:01;;;;;;;4.20;3.80;;;;;;;7.78;55.46;92086.19;1743012;82;21166;-61
2021/01/25 11:21:29;;;;;;;4.22;3.90;;;;;;;7.63;55.35;92091.12;1743374;81;21153;-60
2021/01/25 11:23:58;;;;;;;5.47;4.20;;;;;;;7.55;54.93;92111.22;1743015;81;21194;-61
2021/01/25 11:26:27;;;;;;;3.60;3.30;;;;;;;7.51;55.31;92101.88;1743216;82;21118;-60
2021/01/25 11:28:56;;;;;;;4.30;3.90;;;;;;;7.49;54.72;92105.72;1743300;81;22132;-60
2021/01/25 11:31:25;;;;;;;4.62;4.22;;;;;;;7.44;54.59;92107.83;1743190;82;21102;-61
2021/01/25 11:33:53;;;;;;;7.75;7.15;;;;;;;7.38;54.72;92107.67;1743018;82;21229;-61
2021/01/25 11:36:22;;;;;;;4.72;4.22;;;;;;;7.31;54.33;92125.28;1743296;80;21133;-61
2021/01/25 11:38:51;;;;;;;10.80;5.80;;;;;;;7.19;54.67;92120.25;1743384;81;21570;-60